Time;durP1;ratioP1;P1;durP2;ratioP2;P2;SDS_P1;SDS_P2;PMS_P1;PMS_P2;Temp;Humidity;BMP_temperature;BMP_pressure;BME280_temperature;BME280_humidity;BME280_pressure;Samples;Min_cycle;Max_cycle;Signal;HPM_P1;HPM_P2
2021/08/05 00:02:16;;;;;;;;;;;;;;;;;;5054434;28;20067;-67
2021/08/05 00:04:42;;;;;;;;;;;;;;;;;;5055003;28;19915;-67
2021/08/05 00:07:08;;;;;;;;;;;;;;;;;;5055152;28;19959;-67
2021/08/05 00:09:34;;;;;;;;;;;;;;;;;;5054199;28;20387;-67
2021/08/05 00:12:00;;;;;;;;;;;;;;;;;;5054483;28;19936;-67
2021/08/05 00:14:26;;;;;;;;;;;;;;;;;;5054627;28;19923;-68
2021/08/05 00:16:52;;;;;;;;;;;;;;;;;;5054448;28;19998;-68
2021/08/05 00:19:18;;;;;;;;;;;;;;;;;;5055203;28;19999;-67
2021/08/05 00:21:44;;;;;;;;;;;;;;;;;;5054393;28;20368;-67
2021/08/05 00:24:09;;;;;;;;;;;;;;;;;;5053741;28;20009;-67
2021/08/05 00:26:35;;;;;;;;;;;;;;;;;;5054075;28;20251;-67
2021/08/05 00:29:01;;;;;;;;;;;;;;;;;;5054238;28;20012;-68
2021/08/05 00:31:27;;;;;;;;;;;;;;;;;;5054772;28;20261;-68
2021/08/05 00:33:53;;;;;;;;;;;;;;;;;;5054161;28;19920;-67
2021/08/05 00:36:19;;;;;;;;;;;;;;;;;;5053794;28;19912;-67
2021/08/05 00:38:45;;;;;;;;;;;;;;;;;;5053372;28;20415;-68
2021/08/05 00:41:12;;;;;;;;;;;;;;;;;;5054091;28;19912;-67
2021/08/05 00:43:38;;;;;;;;;;;;;;;;;;5054256;28;19999;-68
2021/08/05 00:46:04;;;;;;;;;;;;;;;;;;5054256;28;20005;-68
2021/08/05 00:48:30;;;;;;;;;;;;;;;;;;5053705;28;20420;-67
2021/08/05 00:50:56;;;;;;;;;;;;;;;;;;5053572;28;19925;-67
2021/08/05 00:53:22;;;;;;;;;;;;;;;;;;5053728;28;20348;-68
2021/08/05 00:55:48;;;;;;;;;;;;;;;;;;5053096;28;19927;-68
2021/08/05 00:58:14;;;;;;;;;;;;;;;;;;5053145;28;20272;-67
2021/08/05 01:00:39;;;;;;;;;;;;;;;;;;5052234;28;19909;-67
2021/08/05 01:03:05;;;;;;;;;;;;;;;;;;5052528;28;19920;-68
2021/08/05 01:05:31;;;;;;;;;;;;;;;;;;5052247;28;19948;-67
2021/08/05 01:07:57;;;;;;;;;;;;;;;;;;5052063;28;19920;-67
2021/08/05 01:10:23;;;;;;;;;;;;;;;;;;5053070;28;19954;-67
2021/08/05 01:12:49;;;;;;;;;;;;;;;;;;5052389;28;20000;-68
2021/08/05 01:15:15;;;;;;;;;;;;;;;;;;5052318;28;19912;-67
2021/08/05 01:17:41;;;;;;;;;;;;;;;;;;5051622;28;19912;-68
2021/08/05 01:20:06;;;;;;;;;;;;;;;;;;5052375;28;19921;-67
2021/08/05 01:22:33;;;;;;;;;;;;;;;;;;5052751;28;20345;-68
2021/08/05 01:24:59;;;;;;;;;;;;;;;;;;5052212;28;19909;-68
2021/08/05 01:27:25;;;;;;;;;;;;;;;;;;5051429;28;19912;-68
2021/08/05 01:29:51;;;;;;;;;;;;;;;;;;5052169;28;19962;-68
2021/08/05 01:32:17;;;;;;;;;;;;;;;;;;5052140;28;20003;-68
2021/08/05 01:34:43;;;;;;;;;;;;;;;;;;5052355;28;19916;-68
2021/08/05 01:37:10;;;;;;;;;;;;;;;;;;5052368;28;19956;-68
2021/08/05 01:39:36;;;;;;;;;;;;;;;;;;5051712;28;20288;-68
2021/08/05 01:42:02;;;;;;;;;;;;;;;;;;5051637;28;19917;-68
2021/08/05 01:44:28;;;;;;;;;;;;;;;;;;5051918;28;20027;-67
2021/08/05 01:46:54;;;;;;;;;;;;;;;;;;5034089;28;19919;-68
2021/08/05 01:49:19;;;;;;;;;;;;;;;;;;5051282;28;19913;-68
2021/08/05 01:51:45;;;;;;;;;;;;;;;;;;5051117;28;20015;-68
2021/08/05 01:54:11;;;;;;;;;;;;;;;;;;4983517;28;1952826;-67
2021/08/05 01:56:37;;;;;;;;;;;;;;;;;;5052654;28;19921;-68
2021/08/05 01:59:03;;;;;;;;;;;;;;;;;;5052623;28;20420;-68
2021/08/05 02:01:29;;;;;;;;;;;;;;;;;;5035227;28;19913;-67
2021/08/05 02:03:55;;;;;;;;;;;;;;;;;;5052052;28;19912;-68
2021/08/05 02:06:21;;;;;;;;;;;;;;;;;;5051740;28;19913;-68
2021/08/05 02:08:46;;;;;;;;;;;;;;;;;;5052464;28;19939;-68
2021/08/05 02:11:12;;;;;;;;;;;;;;;;;;5052214;28;20339;-68
2021/08/05 02:13:40;;;;;;;;;;;;;;;;;;5052718;28;19915;-68
2021/08/05 02:16:06;;;;;;;;;;;;;;;;;;5051592;28;19913;-68
2021/08/05 02:18:32;;;;;;;;;;;;;;;;;;5051965;28;19959;-68
2021/08/05 02:20:58;;;;;;;;;;;;;;;;;;5052065;28;20430;-68
2021/08/05 02:23:24;;;;;;;;;;;;;;;;;;5052281;28;19917;-68
2021/08/05 02:25:50;;;;;;;;;;;;;;;;;;5051969;28;20003;-68
2021/08/05 02:28:16;;;;;;;;;;;;;;;;;;5052317;28;20164;-68
2021/08/05 02:30:42;;;;;;;;;;;;;;;;;;5051806;28;19913;-68
2021/08/05 02:33:07;;;;;;;;;;;;;;;;;;5051776;28;19917;-68
2021/08/05 02:35:33;;;;;;;;;;;;;;;;;;5051701;28;20376;-68
2021/08/05 02:37:59;;;;;;;;;;;;;;;;;;5051911;28;19923;-68
2021/08/05 02:40:25;;;;;;;;;;;;;;;;;;5052122;28;19916;-68
2021/08/05 02:42:51;;;;;;;;;;;;;;;;;;5051846;28;19952;-68
2021/08/05 02:45:17;;;;;;;;;;;;;;;;;;5033620;28;19913;-68
2021/08/05 02:47:43;;;;;;;;;;;;;;;;;;5051503;28;20319;-68
2021/08/05 02:50:08;;;;;;;;;;;;;;;;;;5051519;28;19951;-68
2021/08/05 02:52:34;;;;;;;;;;;;;;;;;;5052320;28;19917;-68
2021/08/05 02:55:00;;;;;;;;;;;;;;;;;;5051132;28;19921;-67
2021/08/05 02:57:26;;;;;;;;;;;;;;;;;;5051512;28;19921;-68
2021/08/05 02:59:52;;;;;;;;;;;;;;;;;;5051696;28;19913;-68
2021/08/05 03:02:18;;;;;;;;;;;;;;;;;;5050246;28;19912;-68
2021/08/05 03:04:44;;;;;;;;;;;;;;;;;;5051907;28;19917;-68
2021/08/05 03:07:10;;;;;;;;;;;;;;;;;;5051552;28;19909;-68
2021/08/05 03:09:36;;;;;;;;;;;;;;;;;;5051529;28;19923;-68
2021/08/05 03:12:02;;;;;;;;;;;;;;;;;;5051107;28;20285;-68
2021/08/05 03:14:28;;;;;;;;;;;;;;;;;;5051531;28;21298;-68
2021/08/05 03:16:53;;;;;;;;;;;;;;;;;;5051330;28;19909;-68
2021/08/05 03:19:19;;;;;;;;;;;;;;;;;;5051724;28;20003;-68
2021/08/05 03:21:45;;;;;;;;;;;;;;;;;;5051014;28;19920;-68
2021/08/05 03:24:11;;;;;;;;;;;;;;;;;;5051435;28;19935;-67
2021/08/05 03:26:37;;;;;;;;;;;;;;;;;;5051554;28;20007;-68
2021/08/05 03:29:03;;;;;;;;;;;;;;;;;;5051454;28;19994;-68
2021/08/05 03:31:29;;;;;;;;;;;;;;;;;;5051447;28;19917;-68
2021/08/05 03:33:55;;;;;;;;;;;;;;;;;;5051047;28;19919;-67
2021/08/05 03:36:20;;;;;;;;;;;;;;;;;;5051354;28;19913;-68
2021/08/05 03:38:46;;;;;;;;;;;;;;;;;;5050834;28;20003;-68
2021/08/05 03:41:12;;;;;;;;;;;;;;;;;;5051259;28;19920;-68
2021/08/05 03:43:38;;;;;;;;;;;;;;;;;;5051322;28;19955;-68
2021/08/05 03:46:04;;;;;;;;;;;;;;;;;;5051052;28;19959;-68
2021/08/05 03:48:30;;;;;;;;;;;;;;;;;;5051241;28;19916;-68
2021/08/05 03:50:56;;;;;;;;;;;;;;;;;;5050996;28;19936;-67
2021/08/05 03:53:21;;;;;;;;;;;;;;;;;;5051188;28;20387;-67
2021/08/05 03:55:47;;;;;;;;;;;;;;;;;;5050310;28;19960;-68
2021/08/05 03:58:13;;;;;;;;;;;;;;;;;;5051767;28;19959;-67
2021/08/05 04:00:39;;;;;;;;;;;;;;;;;;5050829;28;20386;-68
2021/08/05 04:03:05;;;;;;;;;;;;;;;;;;5050937;28;19920;-67
2021/08/05 04:05:31;;;;;;;;;;;;;;;;;;5050867;28;20019;-68
2021/08/05 04:07:57;;;;;;;;;;;;;;;;;;5051114;28;20706;-68
2021/08/05 04:10:23;;;;;;;;;;;;;;;;;;5033257;28;19917;-68
2021/08/05 04:12:49;;;;;;;;;;;;;;;;;;5052242;28;19916;-68
2021/08/05 04:15:15;;;;;;;;;;;;;;;;;;5053963;28;19920;-67
2021/08/05 04:17:41;;;;;;;;;;;;;;;;;;5036282;28;19909;-67
2021/08/05 04:20:07;;;;;;;;;;;;;;;;;;5054463;28;19913;-68
2021/08/05 04:22:32;;;;;;;;;;;;;;;;;;5055112;28;19950;-67
2021/08/05 04:24:58;;;;;;;;;;;;;;;;;;5054030;28;19924;-68
2021/08/05 04:27:24;;;;;;;;;;;;;;;;;;5054131;28;19913;-68
2021/08/05 04:29:50;;;;;;;;;;;;;;;;;;5053628;28;19970;-67
2021/08/05 04:32:16;;;;;;;;;;;;;;;;;;5054394;28;19925;-68
2021/08/05 04:34:42;;;;;;;;;;;;;;;;;;5054474;28;19916;-68
2021/08/05 04:37:08;;;;;;;;;;;;;;;;;;5054056;28;20372;-68
2021/08/05 04:39:34;;;;;;;;;;;;;;;;;;5053722;28;19932;-68
2021/08/05 04:42:00;;;;;;;;;;;;;;;;;;5053965;28;19913;-68
2021/08/05 04:44:26;;;;;;;;;;;;;;;;;;5053415;28;19915;-67
2021/08/05 04:46:52;;;;;;;;;;;;;;;;;;5054132;28;20015;-68
2021/08/05 04:49:18;;;;;;;;;;;;;;;;;;5052520;28;20391;-68
2021/08/05 04:51:43;;;;;;;;;;;;;;;;;;5053461;28;20004;-67
2021/08/05 04:54:10;;;;;;;;;;;;;;;;;;5053258;28;19919;-67
2021/08/05 04:56:36;;;;;;;;;;;;;;;;;;5053514;28;20431;-68
2021/08/05 04:59:02;;;;;;;;;;;;;;;;;;5053489;28;19919;-68
2021/08/05 05:01:28;;;;;;;;;;;;;;;;;;5054265;28;19909;-68
2021/08/05 05:03:54;;;;;;;;;;;;;;;;;;5053529;28;19966;-67
2021/08/05 05:06:20;;;;;;;;;;;;;;;;;;5052909;28;20328;-68
2021/08/05 05:08:45;;;;;;;;;;;;;;;;;;5053607;28;20007;-68
2021/08/05 05:11:11;;;;;;;;;;;;;;;;;;5053514;28;19967;-67
2021/08/05 05:13:37;;;;;;;;;;;;;;;;;;5053775;28;19909;-68
2021/08/05 05:16:03;;;;;;;;;;;;;;;;;;5053146;28;19916;-67
2021/08/05 05:18:29;;;;;;;;;;;;;;;;;;5053024;28;19913;-67
2021/08/05 05:20:55;;;;;;;;;;;;;;;;;;5053542;28;20391;-68
2021/08/05 05:23:21;;;;;;;;;;;;;;;;;;5052997;28;19993;-67
2021/08/05 05:25:47;;;;;;;;;;;;;;;;;;5034627;28;19913;-68
2021/08/05 05:28:13;;;;;;;;;;;;;;;;;;5053173;28;19944;-68
2021/08/05 05:30:39;;;;;;;;;;;;;;;;;;5052935;28;19913;-68
2021/08/05 05:33:04;;;;;;;;;;;;;;;;;;5053091;28;20003;-68
2021/08/05 05:35:30;;;;;;;;;;;;;;;;;;5052792;28;20386;-67
2021/08/05 05:37:56;;;;;;;;;;;;;;;;;;5053111;28;19912;-68
2021/08/05 05:40:22;;;;;;;;;;;;;;;;;;5053130;28;19955;-68
2021/08/05 05:42:48;;;;;;;;;;;;;;;;;;5052738;28;19913;-68
2021/08/05 05:45:14;;;;;;;;;;;;;;;;;;5052369;28;19913;-68
2021/08/05 05:47:40;;;;;;;;;;;;;;;;;;5052760;28;20000;-67
2021/08/05 05:50:06;;;;;;;;;;;;;;;;;;5052566;28;19913;-67
2021/08/05 05:52:31;;;;;;;;;;;;;;;;;;5035111;28;20391;-67
2021/08/05 05:54:57;;;;;;;;;;;;;;;;;;5052583;28;19925;-68
2021/08/05 05:57:23;;;;;;;;;;;;;;;;;;5051995;28;20376;-68
2021/08/05 05:59:49;;;;;;;;;;;;;;;;;;5052719;28;20356;-68
2021/08/05 06:02:15;;;;;;;;;;;;;;;;;;5052442;28;19913;-68
2021/08/05 06:04:41;;;;;;;;;;;;;;;;;;5052405;28;19909;-68
2021/08/05 06:07:07;;;;;;;;;;;;;;;;;;5052467;28;20409;-68
2021/08/05 06:09:33;;;;;;;;;;;;;;;;;;5052212;28;19912;-68
2021/08/05 06:11:59;;;;;;;;;;;;;;;;;;5051950;28;19921;-68
2021/08/05 06:14:24;;;;;;;;;;;;;;;;;;5052012;28;20279;-68
2021/08/05 06:16:50;;;;;;;;;;;;;;;;;;5051881;28;19908;-68
2021/08/05 06:19:16;;;;;;;;;;;;;;;;;;5052771;28;20307;-68
2021/08/05 06:21:42;;;;;;;;;;;;;;;;;;5051756;28;19962;-68
2021/08/05 06:24:09;;;;;;;;;;;;;;;;;;5051777;28;19916;-68
2021/08/05 06:26:35;;;;;;;;;;;;;;;;;;5052054;28;19915;-68
2021/08/05 06:29:01;;;;;;;;;;;;;;;;;;5052120;28;20014;-68
2021/08/05 06:31:26;;;;;;;;;;;;;;;;;;5052438;28;19936;-69
2021/08/05 06:33:52;;;;;;;;;;;;;;;;;;5051515;28;20348;-68
2021/08/05 06:36:18;;;;;;;;;;;;;;;;;;5051329;28;19995;-68
2021/08/05 06:38:44;;;;;;;;;;;;;;;;;;5052092;28;20330;-69
2021/08/05 06:41:10;;;;;;;;;;;;;;;;;;5051206;28;19920;-68
2021/08/05 06:43:36;;;;;;;;;;;;;;;;;;5052213;28;19913;-68
2021/08/05 06:46:02;;;;;;;;;;;;;;;;;;5051767;28;19954;-69
2021/08/05 06:48:28;;;;;;;;;;;;;;;;;;5051498;28;19913;-69
2021/08/05 06:50:54;;;;;;;;;;;;;;;;;;5051596;28;19941;-69
2021/08/05 06:53:20;;;;;;;;;;;;;;;;;;5051662;28;20000;-68
2021/08/05 06:55:46;;;;;;;;;;;;;;;;;;5050565;28;19931;-69
2021/08/05 06:58:12;;;;;;;;;;;;;;;;;;5052236;28;19912;-69
2021/08/05 07:00:38;;;;;;;;;;;;;;;;;;5051694;28;19909;-61
2021/08/05 07:03:04;;;;;;;;;;;;;;;;;;5051498;28;19913;-61
2021/08/05 07:05:30;;;;;;;;;;;;;;;;;;5050990;28;19909;-61
2021/08/05 07:07:56;;;;;;;;;;;;;;;;;;5033742;28;20283;-61
2021/08/05 07:10:22;;;;;;;;;;;;;;;;;;5052228;28;19919;-61
2021/08/05 07:12:47;;;;;;;;;;;;;;;;;;5051425;28;20007;-61
2021/08/05 07:15:13;;;;;;;;;;;;;;;;;;5050954;28;20043;-61
2021/08/05 07:17:45;;;;;;;;;;;;;;;;;;5051785;28;20287;-61
2021/08/05 07:20:11;;;;;;;;;;;;;;;;;;5035675;28;19966;-61
2021/08/05 07:22:38;;;;;;;;;;;;;;;;;;5052079;28;20315;-61
2021/08/05 07:25:04;;;;;;;;;;;;;;;;;;5051054;28;19967;-61
2021/08/05 07:27:30;;;;;;;;;;;;;;;;;;5051245;28;19916;-61
2021/08/05 07:29:56;;;;;;;;;;;;;;;;;;5051269;28;19917;-61
2021/08/05 07:32:22;;;;;;;;;;;;;;;;;;5051358;28;20402;-61
2021/08/05 07:34:48;;;;;;;;;;;;;;;;;;5050932;28;19920;-61
2021/08/05 07:37:14;;;;;;;;;;;;;;;;;;5051798;28;20395;-61
2021/08/05 07:39:40;;;;;;;;;;;;;;;;;;5050433;28;19909;-61
2021/08/05 07:42:06;;;;;;;;;;;;;;;;;;5050831;28;20037;-61
2021/08/05 07:44:31;;;;;;;;;;;;;;;;;;5051319;28;19909;-61
2021/08/05 07:46:57;;;;;;;;;;;;;;;;;;5051108;28;20280;-61
2021/08/05 07:49:25;;;;;;;;;;;;;;;;;;5055485;28;19948;-61
2021/08/05 07:51:51;;;;;;;;;;;;;;;;;;5054746;28;19923;-61
2021/08/05 07:54:17;;;;;;;;;;;;;;;;;;5054614;28;19916;-61
2021/08/05 07:56:43;;;;;;;;;;;;;;;;;;5054840;28;19917;-61
2021/08/05 07:59:08;;;;;;;;;;;;;;;;;;5054521;28;19943;-62
2021/08/05 08:01:34;;;;;;;;;;;;;;;;;;5055540;28;20001;-62
2021/08/05 08:04:00;;;;;;;;;;;;;;;;;;5054630;28;19912;-62
2021/08/05 08:06:26;;;;;;;;;;;;;;;;;;5053980;28;19927;-60
2021/08/05 08:08:53;;;;;;;;;;;;;;;;;;5054387;28;19920;-62
2021/08/05 08:11:23;;;;;;;;;;;;;;;;;;5054613;28;20260;-62
2021/08/05 08:13:49;;;;;;;;;;;;;;;;;;5054724;28;19912;-62
2021/08/05 08:16:15;;;;;;;;;;;;;;;;;;5054750;28;20245;-62
2021/08/05 08:18:41;;;;;;;;;;;;;;;;;;5054179;28;20011;-62
2021/08/05 08:21:07;;;;;;;;;;;;;;;;;;5035724;28;19921;-62
2021/08/05 08:23:32;;;;;;;;;;;;;;;;;;5054356;28;20387;-62
2021/08/05 08:25:58;;;;;;;;;;;;;;;;;;5054395;28;19920;-62
2021/08/05 08:28:24;;;;;;;;;;;;;;;;;;5054679;28;20136;-62
2021/08/05 08:30:51;;;;;;;;;;;;;;;;;;5054093;28;19990;-61
2021/08/05 08:33:17;;;;;;;;;;;;;;;;;;5053872;28;19917;-61
2021/08/05 08:35:42;;;;;;;;;;;;;;;;;;5053727;28;19924;-61
2021/08/05 08:38:08;;;;;;;;;;;;;;;;;;5054125;28;19940;-61
2021/08/05 08:40:34;;;;;;;;;;;;;;;;;;5039024;28;19963;-61
2021/08/05 08:43:01;;;;;;;;;;;;;;;;;;5053657;28;19913;-61
2021/08/05 08:45:26;;;;;;;;;;;;;;;;;;5053163;28;20328;-61
2021/08/05 08:47:52;;;;;;;;;;;;;;;;;;5053833;28;19919;-61
2021/08/05 08:50:18;;;;;;;;;;;;;;;;;;5053712;28;19935;-61
2021/08/05 08:52:44;;;;;;;;;;;;;;;;;;5053801;28;19917;-62
2021/08/05 08:55:10;;;;;;;;;;;;;;;;;;5053426;28;19920;-62
2021/08/05 08:57:36;;;;;;;;;;;;;;;;;;5053736;28;19913;-62
2021/08/05 09:00:02;;;;;;;;;;;;;;;;;;5053528;28;19913;-62
2021/08/05 09:02:28;;;;;;;;;;;;;;;;;;5035703;28;19925;-61
2021/08/05 09:04:54;;;;;;;;;;;;;;;;;;5052938;28;19919;-61
2021/08/05 09:07:20;;;;;;;;;;;;;;;;;;5053806;28;19962;-61
2021/08/05 09:09:45;;;;;;;;;;;;;;;;;;5053405;28;19968;-62
2021/08/05 09:12:15;;;;;;;;;;;;;;;;;;5053224;28;19920;-62
2021/08/05 09:14:41;;;;;;;;;;;;;;;;;;5053476;28;19913;-61
2021/08/05 09:17:07;;;;;;;;;;;;;;;;;;5053157;28;19921;-62
2021/08/05 09:19:33;;;;;;;;;;;;;;;;;;5053260;28;20505;-61
2021/08/05 09:22:01;;;;;;;;;;;;;;;;;;5053125;28;19960;-62
2021/08/05 09:24:27;;;;;;;;;;;;;;;;;;5053128;28;19947;-62
2021/08/05 09:26:56;;;;;;;;;;;;;;;;;;5053085;28;20353;-62
2021/08/05 09:29:22;;;;;;;;;;;;;;;;;;5053368;28;19931;-62
2021/08/05 09:31:48;;;;;;;;;;;;;;;;;;5052642;28;19917;-61
2021/08/05 09:34:14;;;;;;;;;;;;;;;;;;5052893;28;20004;-61
2021/08/05 09:36:40;;;;;;;;;;;;;;;;;;5052871;28;20276;-61
2021/08/05 09:39:06;;;;;;;;;;;;;;;;;;5052942;28;19939;-61
2021/08/05 09:41:32;;;;;;;;;;;;;;;;;;5052887;28;20435;-61
2021/08/05 09:43:57;;;;;;;;;;;;;;;;;;5052893;28;20741;-61
2021/08/05 09:46:23;;;;;;;;;;;;;;;;;;5052578;28;19951;-61
2021/08/05 09:48:49;;;;;;;;;;;;;;;;;;5052500;28;20322;-61
2021/08/05 09:51:15;;;;;;;;;;;;;;;;;;5052640;28;19921;-61
2021/08/05 09:53:41;;;;;;;;;;;;;;;;;;5052663;28;20383;-61
2021/08/05 09:56:07;;;;;;;;;;;;;;;;;;5052254;28;20273;-61
2021/08/05 09:58:33;;;;;;;;;;;;;;;;;;5053271;28;19995;-61
2021/08/05 10:00:58;;;;;;;;;;;;;;;;;;5052167;28;19927;-61
2021/08/05 10:03:24;;;;;;;;;;;;;;;;;;5052206;28;19912;-62
2021/08/05 10:05:50;;;;;;;;;;;;;;;;;;5052275;28;19913;-61
2021/08/05 10:08:16;;;;;;;;;;;;;;;;;;5052079;28;20275;-61
2021/08/05 10:10:42;;;;;;;;;;;;;;;;;;5051952;28;19962;-61
2021/08/05 10:13:08;;;;;;;;;;;;;;;;;;5052097;28;20406;-61
2021/08/05 10:15:34;;;;;;;;;;;;;;;;;;5052222;28;19920;-61
2021/08/05 10:18:00;;;;;;;;;;;;;;;;;;5051563;28;19952;-61
2021/08/05 10:20:26;;;;;;;;;;;;;;;;;;5052078;28;19912;-61
2021/08/05 10:22:52;;;;;;;;;;;;;;;;;;5051902;28;19940;-61
2021/08/05 10:25:20;;;;;;;;;;;;;;;;;;5052464;28;19908;-61
2021/08/05 10:27:45;;;;;;;;;;;;;;;;;;5051552;28;19970;-61
2021/08/05 10:30:11;;;;;;;;;;;;;;;;;;5051416;28;19923;-61
2021/08/05 10:32:37;;;;;;;;;;;;;;;;;;5051804;28;20334;-61
2021/08/05 10:35:03;;;;;;;;;;;;;;;;;;5034099;28;19913;-61
2021/08/05 10:37:29;;;;;;;;;;;;;;;;;;5052049;28;20399;-61
2021/08/05 10:39:55;;;;;;;;;;;;;;;;;;5051384;28;19913;-62
2021/08/05 10:42:21;;;;;;;;;;;;;;;;;;5051794;28;19920;-62
2021/08/05 10:44:47;;;;;;;;;;;;;;;;;;5051872;28;19916;-61
2021/08/05 10:47:12;;;;;;;;;;;;;;;;;;5051684;28;19974;-62
2021/08/05 10:49:38;;;;;;;;;;;;;;;;;;5051795;28;19944;-61
2021/08/05 10:52:04;;;;;;;;;;;;;;;;;;5051472;28;20011;-62
2021/08/05 10:54:30;;;;;;;;;;;;;;;;;;5051431;28;19916;-62
2021/08/05 10:56:56;;;;;;;;;;;;;;;;;;5051636;28;19924;-62
2021/08/05 10:59:22;;;;;;;;;;;;;;;;;;5051261;28;19964;-62
2021/08/05 11:01:48;;;;;;;;;;;;;;;;;;5051611;28;19909;-61
2021/08/05 11:04:14;;;;;;;;;;;;;;;;;;5051710;28;19909;-62
2021/08/05 11:06:40;;;;;;;;;;;;;;;;;;5051577;28;19939;-62
2021/08/05 11:09:05;;;;;;;;;;;;;;;;;;5033329;28;19944;-61
2021/08/05 11:11:31;;;;;;;;;;;;;;;;;;5051524;28;19920;-62
2021/08/05 11:13:57;;;;;;;;;;;;;;;;;;5051457;28;19917;-61
2021/08/05 11:16:23;;;;;;;;;;;;;;;;;;5051556;28;20378;-61
2021/08/05 11:18:49;;;;;;;;;;;;;;;;;;5051121;28;19940;-62
2021/08/05 11:21:15;;;;;;;;;;;;;;;;;;5051669;28;19912;-62
2021/08/05 11:23:41;;;;;;;;;;;;;;;;;;5036771;28;19916;-62
2021/08/05 11:26:07;;;;;;;;;;;;;;;;;;5055207;28;19920;-62
2021/08/05 11:28:33;;;;;;;;;;;;;;;;;;5055591;28;19920;-62
2021/08/05 11:30:58;;;;;;;;;;;;;;;;;;5055043;28;19913;-62
2021/08/05 11:33:24;;;;;;;;;;;;;;;;;;5055271;28;19962;-64
2021/08/05 11:35:50;;;;;;;;;;;;;;;;;;5055140;28;19913;-62
2021/08/05 11:38:18;;;;;;;;;;;;;;;;;;5055149;28;19913;-62
2021/08/05 11:40:43;;;;;;;;;;;;;;;;;;5055469;28;19944;-62
2021/08/05 11:43:09;;;;;;;;;;;;;;;;;;5055064;28;19956;-62
2021/08/05 11:45:35;;;;;;;;;;;;;;;;;;5054910;28;19919;-62
2021/08/05 11:48:01;;;;;;;;;;;;;;;;;;5037069;28;19917;-62
2021/08/05 11:50:27;;;;;;;;;;;;;;;;;;5054696;28;19971;-62
2021/08/05 11:52:53;;;;;;;;;;;;;;;;;;5055068;28;19972;-62
2021/08/05 11:55:20;;;;;;;;;;;;;;;;;;5053285;28;20467;-62
2021/08/05 11:57:46;;;;;;;;;;;;;;;;;;5054379;28;19912;-61
2021/08/05 12:00:12;;;;;;;;;;;;;;;;;;5054195;28;19913;-62
2021/08/05 12:02:38;;;;;;;;;;;;;;;;;;5054740;28;19913;-61
2021/08/05 12:05:04;;;;;;;;;;;;;;;;;;5054815;28;20015;-61
2021/08/05 12:07:30;;;;;;;;;;;;;;;;;;5055361;28;19909;-61
2021/08/05 12:09:56;;;;;;;;;;;;;;;;;;5054259;28;20012;-61
2021/08/05 12:12:22;;;;;;;;;;;;;;;;;;5054506;28;20419;-62
2021/08/05 12:14:48;;;;;;;;;;;;;;;;;;5053584;28;19912;-61
2021/08/05 12:17:14;;;;;;;;;;;;;;;;;;5054582;28;20338;-61
2021/08/05 12:19:41;;;;;;;;;;;;;;;;;;5054821;28;20453;-61
2021/08/05 12:22:07;;;;;;;;;;;;;;;;;;5053650;28;19913;-62
2021/08/05 12:24:33;;;;;;;;;;;;;;;;;;5054291;28;20273;-62
2021/08/05 12:26:59;;;;;;;;;;;;;;;;;;5054238;28;19913;-61
2021/08/05 12:29:25;;;;;;;;;;;;;;;;;;5053593;28;19962;-61
2021/08/05 12:31:51;;;;;;;;;;;;;;;;;;5054051;28;19921;-62
2021/08/05 12:34:18;;;;;;;;;;;;;;;;;;5054196;28;19913;-62
2021/08/05 12:36:44;;;;;;;;;;;;;;;;;;5054051;28;19913;-62
2021/08/05 12:39:10;;;;;;;;;;;;;;;;;;5054391;28;19962;-61
2021/08/05 12:41:36;;;;;;;;;;;;;;;;;;5054124;28;19920;-62
2021/08/05 12:44:02;;;;;;;;;;;;;;;;;;5053549;28;20338;-62
2021/08/05 12:46:28;;;;;;;;;;;;;;;;;;5054227;28;20008;-62
2021/08/05 12:48:55;;;;;;;;;;;;;;;;;;5053952;28;19912;-62
2021/08/05 12:51:20;;;;;;;;;;;;;;;;;;5053541;28;19928;-62
2021/08/05 12:53:46;;;;;;;;;;;;;;;;;;5053705;28;20474;-62
2021/08/05 12:56:12;;;;;;;;;;;;;;;;;;5053600;28;19921;-62
2021/08/05 12:58:38;;;;;;;;;;;;;;;;;;5053170;28;19916;-62
2021/08/05 13:01:04;;;;;;;;;;;;;;;;;;5053578;28;19908;-62
2021/08/05 13:03:30;;;;;;;;;;;;;;;;;;5053534;28;19952;-62
2021/08/05 13:05:56;;;;;;;;;;;;;;;;;;5053581;28;20289;-62
2021/08/05 13:08:22;;;;;;;;;;;;;;;;;;5053306;28;19913;-62
2021/08/05 13:10:48;;;;;;;;;;;;;;;;;;5053146;28;19909;-61
2021/08/05 13:13:15;;;;;;;;;;;;;;;;;;5053590;28;20399;-61
2021/08/05 13:15:41;;;;;;;;;;;;;;;;;;5053213;28;19913;-61
2021/08/05 13:18:07;;;;;;;;;;;;;;;;;;5052842;28;20003;-61
2021/08/05 13:20:33;;;;;;;;;;;;;;;;;;5053338;28;19913;-61
2021/08/05 13:22:59;;;;;;;;;;;;;;;;;;5053072;28;19928;-61
2021/08/05 13:25:25;;;;;;;;;;;;;;;;;;5053613;28;19935;-61
2021/08/05 13:27:51;;;;;;;;;;;;;;;;;;5053168;28;20375;-61
2021/08/05 13:30:19;;;;;;;;;;;;;;;;;;5052598;28;19916;-61
2021/08/05 13:32:44;;;;;;;;;;;;;;;;;;5034879;28;19921;-61
2021/08/05 13:35:10;;;;;;;;;;;;;;;;;;5052999;28;19992;-61
2021/08/05 13:37:36;;;;;;;;;;;;;;;;;;5053246;28;19912;-61
2021/08/05 13:40:02;;;;;;;;;;;;;;;;;;5052661;28;19954;-61
2021/08/05 13:42:28;;;;;;;;;;;;;;;;;;5052548;28;20368;-61
2021/08/05 13:44:54;;;;;;;;;;;;;;;;;;5052136;28;19913;-61
2021/08/05 13:47:20;;;;;;;;;;;;;;;;;;5034740;28;19999;-61
2021/08/05 13:49:46;;;;;;;;;;;;;;;;;;5052329;28;20358;-61
2021/08/05 13:52:12;;;;;;;;;;;;;;;;;;5053197;28;19916;-61
2021/08/05 13:54:38;;;;;;;;;;;;;;;;;;5051902;28;19917;-61
2021/08/05 13:57:04;;;;;;;;;;;;;;;;;;5052583;28;19913;-61
2021/08/05 13:59:29;;;;;;;;;;;;;;;;;;5052148;28;19921;-61
2021/08/05 14:01:55;;;;;;;;;;;;;;;;;;5052675;28;19915;-61
2021/08/05 14:04:21;;;;;;;;;;;;;;;;;;5053129;28;19924;-61
2021/08/05 14:06:47;;;;;;;;;;;;;;;;;;5052289;28;19967;-61
2021/08/05 14:09:13;;;;;;;;;;;;;;;;;;5051863;28;20411;-61
2021/08/05 14:11:39;;;;;;;;;;;;;;;;;;5052027;28;19927;-61
2021/08/05 14:14:05;;;;;;;;;;;;;;;;;;5052463;28;19919;-61
2021/08/05 14:16:31;;;;;;;;;;;;;;;;;;5052796;28;19956;-61
2021/08/05 14:18:56;;;;;;;;;;;;;;;;;;5051966;28;20396;-61
2021/08/05 14:21:22;;;;;;;;;;;;;;;;;;5051684;28;19916;-61
2021/08/05 14:23:48;;;;;;;;;;;;;;;;;;5051842;28;19920;-61
2021/08/05 14:26:14;;;;;;;;;;;;;;;;;;5051930;28;20000;-61
2021/08/05 14:28:40;;;;;;;;;;;;;;;;;;5051998;28;19931;-61
2021/08/05 14:31:06;;;;;;;;;;;;;;;;;;5052174;28;19931;-61
2021/08/05 14:33:32;;;;;;;;;;;;;;;;;;5051450;28;20016;-61
2021/08/05 14:35:58;;;;;;;;;;;;;;;;;;5051926;28;20241;-61
2021/08/05 14:38:23;;;;;;;;;;;;;;;;;;5051715;28;19913;-61
2021/08/05 14:40:49;;;;;;;;;;;;;;;;;;5051997;28;19991;-61
2021/08/05 14:43:15;;;;;;;;;;;;;;;;;;5051937;28;19909;-62
2021/08/05 14:45:41;;;;;;;;;;;;;;;;;;5051716;28;19913;-62
2021/08/05 14:48:07;;;;;;;;;;;;;;;;;;5051495;28;19963;-61
2021/08/05 14:50:33;;;;;;;;;;;;;;;;;;5033322;28;19920;-61
2021/08/05 14:52:59;;;;;;;;;;;;;;;;;;5051561;28;20264;-61
2021/08/05 14:55:24;;;;;;;;;;;;;;;;;;5052125;28;19999;-61
2021/08/05 14:57:50;;;;;;;;;;;;;;;;;;5033071;28;20360;-61
2021/08/05 15:00:16;;;;;;;;;;;;;;;;;;5051608;28;19912;-61
2021/08/05 15:02:42;;;;;;;;;;;;;;;;;;5051285;28;19999;-61
2021/08/05 15:05:08;;;;;;;;;;;;;;;;;;5051999;28;19916;-70
2021/08/05 15:07:34;;;;;;;;;;;;;;;;;;5051982;28;19909;-70
2021/08/05 15:10:00;;;;;;;;;;;;;;;;;;5051460;28;19948;-70
2021/08/05 15:12:29;;;;;;;;;;;;;;;;;;5050986;28;20433;-70
2021/08/05 15:14:55;;;;;;;;;;;;;;;;;;5051108;28;19920;-70
2021/08/05 15:17:20;;;;;;;;;;;;;;;;;;5051494;28;19912;-70
2021/08/05 15:19:46;;;;;;;;;;;;;;;;;;5051111;28;19916;-70
2021/08/05 15:22:12;;;;;;;;;;;;;;;;;;5051609;28;20364;-70
2021/08/05 15:24:39;;;;;;;;;;;;;;;;;;5051330;28;19913;-70
2021/08/05 15:27:05;;;;;;;;;;;;;;;;;;5050953;28;19926;-70
2021/08/05 15:29:31;;;;;;;;;;;;;;;;;;5051368;28;20012;-70
2021/08/05 15:31:57;;;;;;;;;;;;;;;;;;5051318;28;19921;-70
2021/08/05 15:34:23;;;;;;;;;;;;;;;;;;5051538;28;19909;-70
2021/08/05 15:36:49;;;;;;;;;;;;;;;;;;5050809;28;19920;-70
2021/08/05 15:39:14;;;;;;;;;;;;;;;;;;5050897;28;19917;-70
2021/08/05 15:41:40;;;;;;;;;;;;;;;;;;5051451;28;19913;-70
2021/08/05 15:44:06;;;;;;;;;;;;;;;;;;5051045;28;19917;-70
2021/08/05 15:46:32;;;;;;;;;;;;;;;;;;5051764;28;19941;-70
2021/08/05 15:48:58;;;;;;;;;;;;;;;;;;5051031;28;20316;-70
2021/08/05 15:51:24;;;;;;;;;;;;;;;;;;5050365;28;19947;-70
2021/08/05 15:53:52;;;;;;;;;;;;;;;;;;5050648;28;19909;-70
2021/08/05 15:56:17;;;;;;;;;;;;;;;;;;5050725;28;19928;-70
2021/08/05 15:58:43;;;;;;;;;;;;;;;;;;5051286;28;19909;-70
2021/08/05 16:01:09;;;;;;;;;;;;;;;;;;5051415;28;19912;-70
2021/08/05 16:03:35;;;;;;;;;;;;;;;;;;5050458;28;19959;-70
2021/08/05 16:06:01;;;;;;;;;;;;;;;;;;5050394;28;19965;-70
2021/08/05 16:08:27;;;;;;;;;;;;;;;;;;5051963;28;19912;-70
2021/08/05 16:10:53;;;;;;;;;;;;;;;;;;5054774;28;19928;-70
2021/08/05 16:13:19;;;;;;;;;;;;;;;;;;5055438;28;20082;-70
2021/08/05 16:15:45;;;;;;;;;;;;;;;;;;5054001;28;20319;-70
2021/08/05 16:18:11;;;;;;;;;;;;;;;;;;5053982;28;19913;-70
2021/08/05 16:20:38;;;;;;;;;;;;;;;;;;5054307;28;19913;-70
2021/08/05 16:23:04;;;;;;;;;;;;;;;;;;5054060;28;19917;-70
2021/08/05 16:25:30;;;;;;;;;;;;;;;;;;5054957;28;19992;-70
2021/08/05 16:27:56;;;;;;;;;;;;;;;;;;5054391;28;19979;-70
2021/08/05 16:30:22;;;;;;;;;;;;;;;;;;5054312;28;19942;-70
2021/08/05 16:32:47;;;;;;;;;;;;;;;;;;5053428;28;20275;-70
2021/08/05 16:35:13;;;;;;;;;;;;;;;;;;5053999;28;19968;-71
2021/08/05 16:37:39;;;;;;;;;;;;;;;;;;5054737;28;20376;-71